createdAt,value
2023-02-13T00:00:09.639Z,6.05
2023-02-13T00:02:36.052Z,6.27
2023-02-13T00:05:02.597Z,5.84
2023-02-13T00:07:28.997Z,5.99
2023-02-13T00:09:56.017Z,6.61
2023-02-13T00:12:26.897Z,6.51
2023-02-13T00:14:53.646Z,6.48
2023-02-13T00:17:20.119Z,6.61
2023-02-13T00:19:46.571Z,6.70
2023-02-13T00:22:13.004Z,6.57
2023-02-13T00:24:39.425Z,6.49
2023-02-13T00:27:06.549Z,6.15
2023-02-13T00:29:33.534Z,5.88
2023-02-13T00:32:00.677Z,5.90
2023-02-13T00:34:27.698Z,6.41
2023-02-13T00:36:54.710Z,6.55
2023-02-13T00:39:21.146Z,6.20
2023-02-13T00:41:48.217Z,6.16
2023-02-13T00:44:15.407Z,5.49
2023-02-13T00:46:41.912Z,5.07
2023-02-13T00:49:08.750Z,5.37
2023-02-13T00:51:35.279Z,5.85
2023-02-13T00:54:01.753Z,5.34
2023-02-13T00:56:28.324Z,5.25
2023-02-13T00:58:54.758Z,5.09
2023-02-13T01:01:22.431Z,5.39
2023-02-13T01:03:48.885Z,5.60
2023-02-13T01:06:15.299Z,5.46
2023-02-13T01:08:42.146Z,4.91
2023-02-13T01:11:08.672Z,4.72
2023-02-13T01:13:35.756Z,5.10
2023-02-13T01:16:03.352Z,5.22
2023-02-13T01:18:30.473Z,5.35
2023-02-13T01:20:59.835Z,5.35
2023-02-13T01:23:29.898Z,5.63
2023-02-13T01:25:56.314Z,5.52
2023-02-13T01:28:22.808Z,5.74
2023-02-13T01:30:53.868Z,5.32
2023-02-13T01:33:21.818Z,5.49
2023-02-13T01:35:48.957Z,5.64
2023-02-13T01:38:15.534Z,5.65
2023-02-13T01:40:45.574Z,5.28
2023-02-13T01:43:12.330Z,5.37
2023-02-13T01:45:43.894Z,5.59
2023-02-13T01:48:15.543Z,5.31
2023-02-13T01:50:45.732Z,5.29
2023-02-13T01:53:18.682Z,5.29
2023-02-13T01:55:50.005Z,5.34
2023-02-13T01:58:21.005Z,5.97
2023-02-13T02:00:50.896Z,5.30
2023-02-13T02:03:22.559Z,5.36
2023-02-13T02:05:50.913Z,5.70
2023-02-13T02:08:22.694Z,5.04
2023-02-13T02:10:53.205Z,4.69
2023-02-13T02:13:25.911Z,4.81
2023-02-13T02:15:56.008Z,4.99
2023-02-13T02:18:24.514Z,5.24
2023-02-13T02:21:24.029Z,4.31
2023-02-13T02:24:24.859Z,4.42
2023-02-13T02:27:05.262Z,5.05
2023-02-13T02:30:03.798Z,5.54
2023-02-13T02:32:42.901Z,5.30
2023-02-13T02:35:23.031Z,5.10
2023-02-13T02:38:06.394Z,5.00
2023-02-13T02:40:41.366Z,4.78
2023-02-13T02:43:31.010Z,5.25
2023-02-13T02:46:11.432Z,5.20
2023-02-13T02:49:04.281Z,5.34
2023-02-13T02:51:38.619Z,5.46
2023-02-13T02:54:27.537Z,5.71
2023-02-13T02:56:58.194Z,5.82
2023-02-13T02:59:47.534Z,5.56
2023-02-13T03:02:34.114Z,5.72
2023-02-13T03:05:20.580Z,5.60
2023-02-13T03:07:47.032Z,4.95
2023-02-13T03:10:38.193Z,4.98
2023-02-13T03:13:22.058Z,5.12
2023-02-13T03:16:06.819Z,5.32
2023-02-13T03:18:55.274Z,4.92
2023-02-13T03:21:50.028Z,5.30
2023-02-13T03:24:25.322Z,5.45
2023-02-13T03:27:00.112Z,5.58
2023-02-13T03:30:01.149Z,5.29
2023-02-13T03:32:35.728Z,5.22
2023-02-13T03:35:34.263Z,4.92
2023-02-13T03:38:08.820Z,4.77
2023-02-13T03:40:59.246Z,5.02
2023-02-13T03:43:29.478Z,4.39
2023-02-13T03:45:58.033Z,4.33
2023-02-13T03:48:46.052Z,4.47
2023-02-13T03:51:18.225Z,4.61
2023-02-13T03:53:51.562Z,4.34
2023-02-13T03:56:38.423Z,4.59
2023-02-13T03:59:15.858Z,4.42
2023-02-13T04:01:53.893Z,4.68
2023-02-13T04:04:28.715Z,4.91
2023-02-13T04:06:59.601Z,4.86
2023-02-13T04:09:29.289Z,4.88
2023-02-13T04:12:02.094Z,4.96
2023-02-13T04:14:36.436Z,5.09
2023-02-13T04:17:05.641Z,4.66
2023-02-13T04:19:33.442Z,4.36
2023-02-13T04:22:01.995Z,4.59
2023-02-13T04:24:29.620Z,4.42
2023-02-13T04:26:56.503Z,4.35
2023-02-13T04:29:23.897Z,4.53
2023-02-13T04:31:50.477Z,4.75
2023-02-13T04:34:17.158Z,4.57
2023-02-13T04:36:43.579Z,4.61
2023-02-13T04:39:11.517Z,4.37
2023-02-13T04:41:38.683Z,4.43
2023-02-13T04:44:05.120Z,4.46
2023-02-13T04:46:31.624Z,4.42
2023-02-13T04:48:58.070Z,4.11
2023-02-13T04:51:24.470Z,4.11
2023-02-13T04:53:50.884Z,3.91
2023-02-13T04:56:19.593Z,4.10
2023-02-13T04:58:46.968Z,4.35
2023-02-13T05:01:14.890Z,3.90
2023-02-13T05:03:41.593Z,4.18
2023-02-13T05:06:08.130Z,4.43
2023-02-13T05:08:34.559Z,4.67
2023-02-13T05:11:00.956Z,4.08
2023-02-13T05:13:27.340Z,4.19
2023-02-13T05:15:54.403Z,4.24
2023-02-13T05:18:21.103Z,4.21
2023-02-13T05:21:08.134Z,4.49
2023-02-13T05:23:34.257Z,4.73
2023-02-13T05:26:00.661Z,4.40
2023-02-13T05:28:59.679Z,4.63
2023-02-13T05:31:26.766Z,4.69
2023-02-13T05:33:53.199Z,4.75
2023-02-13T05:36:19.566Z,4.75
2023-02-13T05:38:45.920Z,4.55
2023-02-13T05:41:13.028Z,3.60
2023-02-13T05:43:39.472Z,3.81
2023-02-13T05:46:08.183Z,4.03
2023-02-13T05:48:36.392Z,3.99
2023-02-13T05:51:03.085Z,4.13
2023-02-13T05:53:29.705Z,3.67
2023-02-13T05:55:56.490Z,3.39
2023-02-13T05:58:23.138Z,3.86
2023-02-13T06:00:49.573Z,3.97
2023-02-13T06:03:15.966Z,4.32
2023-02-13T06:05:43.115Z,4.00
2023-02-13T06:08:09.539Z,4.27
2023-02-13T06:10:35.917Z,3.39
2023-02-13T06:13:02.340Z,4.07
2023-02-13T06:15:29.369Z,4.12
2023-02-13T06:17:55.832Z,3.46
2023-02-13T06:20:22.648Z,3.76
2023-02-13T06:22:50.269Z,4.32
2023-02-13T06:25:17.166Z,4.65
2023-02-13T06:27:43.780Z,4.44
2023-02-13T06:30:11.498Z,4.44
2023-02-13T06:32:37.975Z,4.87
2023-02-13T06:35:05.724Z,5.06
2023-02-13T06:37:32.296Z,4.26
2023-02-13T06:39:59.424Z,4.27
2023-02-13T06:42:26.278Z,4.07
2023-02-13T06:44:53.562Z,4.81
2023-02-13T06:47:20.062Z,4.90
2023-02-13T06:49:46.470Z,4.85
2023-02-13T06:52:12.957Z,4.91
2023-02-13T06:54:47.340Z,4.87
2023-02-13T06:57:15.423Z,5.15
2023-02-13T06:59:41.937Z,4.52
2023-02-13T07:02:09.460Z,4.34
2023-02-13T07:04:35.850Z,4.53
2023-02-13T07:07:02.291Z,4.46
2023-02-13T07:09:28.829Z,4.02
2023-02-13T07:11:55.199Z,4.40
2023-02-13T07:14:22.332Z,4.29
2023-02-13T07:16:48.804Z,4.28
2023-02-13T07:19:15.237Z,4.34
2023-02-13T07:21:41.637Z,4.55
2023-02-13T07:24:08.364Z,4.53
2023-02-13T07:26:34.845Z,4.82
2023-02-13T07:29:11.209Z,4.65
2023-02-13T07:31:39.603Z,4.93
2023-02-13T07:34:06.397Z,5.00
2023-02-13T07:36:32.838Z,5.13
2023-02-13T07:38:59.215Z,5.69
2023-02-13T07:41:26.035Z,5.03
2023-02-13T07:43:52.505Z,4.44
2023-02-13T07:46:18.948Z,4.73
2023-02-13T07:48:46.036Z,4.36
2023-02-13T07:51:12.470Z,4.33
2023-02-13T07:53:38.907Z,4.15
2023-02-13T07:56:06.192Z,3.88
2023-02-13T07:58:32.788Z,3.98
2023-02-13T08:00:59.294Z,3.70
2023-02-13T08:03:25.688Z,3.81
2023-02-13T08:05:52.865Z,3.67
2023-02-13T08:08:19.287Z,5.01
2023-02-13T08:11:03.791Z,4.34
2023-02-13T08:13:30.232Z,5.11
2023-02-13T08:15:56.935Z,4.86
2023-02-13T08:18:23.448Z,4.95
2023-02-13T08:20:49.960Z,3.82
2023-02-13T08:23:17.067Z,3.00
2023-02-13T08:25:43.503Z,2.25
2023-02-13T08:28:10.097Z,1.94
2023-02-13T08:30:36.530Z,1.62
2023-02-13T08:33:02.946Z,1.42
2023-02-13T08:35:30.848Z,1.38
2023-02-13T08:37:57.405Z,1.39
2023-02-13T08:40:25.617Z,1.47
2023-02-13T08:42:52.600Z,1.71
2023-02-13T08:45:19.010Z,1.65
2023-02-13T08:47:45.424Z,1.69
2023-02-13T08:50:11.843Z,1.56
2023-02-13T08:52:38.267Z,1.44
2023-02-13T08:55:05.385Z,1.05
2023-02-13T08:57:32.439Z,1.40
2023-02-13T08:59:58.925Z,1.62
2023-02-13T09:02:25.363Z,1.80
2023-02-13T09:04:51.813Z,1.76
2023-02-13T09:07:18.237Z,1.80
2023-02-13T09:09:44.621Z,1.87
2023-02-13T09:12:11.099Z,1.94
2023-02-13T09:14:38.960Z,2.02
2023-02-13T09:17:05.444Z,1.88
2023-02-13T09:19:31.973Z,2.10
2023-02-13T09:21:58.362Z,2.02
2023-02-13T09:24:25.184Z,1.89
2023-02-13T09:26:51.720Z,1.92
2023-02-13T09:29:18.128Z,1.92
2023-02-13T09:31:45.356Z,1.92
2023-02-13T09:34:11.856Z,2.17
2023-02-13T09:36:38.393Z,1.98
2023-02-13T09:39:04.782Z,1.91
2023-02-13T09:41:36.195Z,1.93
2023-02-13T09:44:06.960Z,1.69
2023-02-13T09:46:36.256Z,1.85
2023-02-13T09:49:08.166Z,2.04
2023-02-13T09:51:35.270Z,2.17
2023-02-13T09:54:04.395Z,2.14
2023-02-13T09:56:49.323Z,2.19
2023-02-13T09:59:33.174Z,2.37
2023-02-13T10:02:08.174Z,2.51
2023-02-13T10:04:45.939Z,2.48
2023-02-13T10:07:21.397Z,2.66
2023-02-13T10:09:53.715Z,2.57
2023-02-13T10:12:35.572Z,2.55
2023-02-13T10:15:15.844Z,2.46
2023-02-13T10:17:44.847Z,2.57
2023-02-13T10:20:24.487Z,2.39
2023-02-13T10:22:54.930Z,2.44
2023-02-13T10:25:24.962Z,2.51
2023-02-13T10:27:55.547Z,2.35
2023-02-13T10:30:25.461Z,2.36
2023-02-13T10:33:13.536Z,2.15
2023-02-13T10:35:42.898Z,2.42
2023-02-13T10:38:16.227Z,2.42
2023-02-13T10:40:54.071Z,2.35
2023-02-13T10:43:25.617Z,2.15
2023-02-13T10:46:04.286Z,2.29
2023-02-13T10:48:59.060Z,2.25
2023-02-13T10:51:34.613Z,2.44
2023-02-13T10:54:28.426Z,2.26
2023-02-13T10:57:05.109Z,2.56
2023-02-13T10:59:47.326Z,2.71
2023-02-13T11:02:22.873Z,2.84
2023-02-13T11:04:50.408Z,2.60
2023-02-13T11:07:21.498Z,2.53
2023-02-13T11:09:49.688Z,2.71
2023-02-13T11:12:28.142Z,2.80
2023-02-13T11:14:56.379Z,2.92
2023-02-13T11:17:24.444Z,3.01
2023-02-13T11:19:53.408Z,2.96
2023-02-13T11:22:31.369Z,2.85
2023-02-13T11:25:01.518Z,2.71
2023-02-13T11:27:31.800Z,2.73
2023-02-13T11:30:01.337Z,2.72
2023-02-13T11:32:29.277Z,2.78
2023-02-13T11:34:56.461Z,2.95
2023-02-13T11:37:25.693Z,3.07
2023-02-13T11:39:54.628Z,3.11
2023-02-13T11:42:26.492Z,3.28
2023-02-13T11:44:57.018Z,2.98
2023-02-13T11:47:35.673Z,2.71
2023-02-13T11:50:02.937Z,2.79
2023-02-13T11:52:32.243Z,2.86
2023-02-13T11:55:03.422Z,2.86
2023-02-13T11:57:33.766Z,3.04
2023-02-13T12:03:29.502Z,3.19
2023-02-13T12:06:01.649Z,3.19
2023-02-13T12:08:29.024Z,3.39
2023-02-13T12:10:57.285Z,3.62
2023-02-13T12:13:29.435Z,3.67
2023-02-13T12:16:02.286Z,3.61
2023-02-13T12:18:36.408Z,3.95
2023-02-13T12:21:11.827Z,3.95
2023-02-13T12:23:47.167Z,3.83
2023-02-13T12:26:26.381Z,3.60
2023-02-13T12:29:12.799Z,3.81
2023-02-13T12:31:52.633Z,3.81
2023-02-13T12:34:56.521Z,3.85
2023-02-13T12:37:37.724Z,3.97
2023-02-13T12:40:23.926Z,3.93
2023-02-13T12:43:09.610Z,3.94
2023-02-13T12:45:42.760Z,3.81
2023-02-13T12:48:21.254Z,3.93
2023-02-13T12:51:05.562Z,3.98
2023-02-13T12:53:47.005Z,4.06
2023-02-13T12:56:44.778Z,3.98
2023-02-13T12:59:20.774Z,3.95
2023-02-13T13:02:04.068Z,3.69
2023-02-13T13:04:44.080Z,3.81
2023-02-13T13:07:28.688Z,3.99
2023-02-13T13:10:21.667Z,4.01
2023-02-13T13:13:00.781Z,3.94
2023-02-13T13:15:37.847Z,4.20
2023-02-13T13:18:25.376Z,3.67
2023-02-13T13:21:13.704Z,3.99
2023-02-13T13:23:46.687Z,4.12
2023-02-13T13:26:25.241Z,3.99
2023-02-13T13:28:55.550Z,4.16
2023-02-13T13:31:25.662Z,3.92
2023-02-13T13:33:54.475Z,3.95
2023-02-13T13:36:31.707Z,4.08
2023-02-13T13:39:05.891Z,3.92
2023-02-13T13:41:41.444Z,3.88
2023-02-13T13:44:34.614Z,3.86
2023-02-13T13:47:31.797Z,4.13
2023-02-13T13:49:59.795Z,4.30
2023-02-13T13:52:28.839Z,4.56
2023-02-13T13:55:01.914Z,4.35
2023-02-13T13:57:58.866Z,4.70
2023-02-13T14:00:28.852Z,5.09
2023-02-13T14:03:30.694Z,4.92
2023-02-13T14:06:04.344Z,4.79
2023-02-13T14:09:06.012Z,5.44
2023-02-13T14:11:36.563Z,5.33
2023-02-13T14:14:52.005Z,5.22
2023-02-13T14:17:57.156Z,4.99
2023-02-13T14:20:43.397Z,5.22
2023-02-13T14:23:20.824Z,5.44
2023-02-13T14:25:47.477Z,5.45
2023-02-13T14:28:22.860Z,5.73
2023-02-13T14:30:55.682Z,5.55
2023-02-13T14:33:29.908Z,5.36
2023-02-13T14:36:01.539Z,5.26
2023-02-13T14:38:29.250Z,5.63
2023-02-13T14:40:56.633Z,5.65
2023-02-13T14:43:36.789Z,4.98
2023-02-13T14:46:26.558Z,4.89
2023-02-13T14:48:58.872Z,5.21
2023-02-13T14:51:34.300Z,5.38
2023-02-13T14:54:06.655Z,5.31
2023-02-13T14:56:33.986Z,5.28
2023-02-13T14:59:11.274Z,5.36
2023-02-13T15:01:44.701Z,5.59
2023-02-13T15:04:16.688Z,5.17
2023-02-13T15:06:46.424Z,5.08
2023-02-13T15:09:21.644Z,5.11
2023-02-13T15:11:48.215Z,5.06
2023-02-13T15:14:29.809Z,4.73
2023-02-13T15:17:01.298Z,4.85
2023-02-13T15:19:28.278Z,5.05
2023-02-13T15:21:58.820Z,4.88
2023-02-13T15:24:26.753Z,4.69
2023-02-13T15:26:59.448Z,4.38
2023-02-13T15:29:31.130Z,4.29
2023-02-13T15:32:17.551Z,4.32
2023-02-13T15:34:47.749Z,4.42
2023-02-13T15:37:21.725Z,4.22
2023-02-13T15:39:48.312Z,3.95
2023-02-13T15:42:15.029Z,3.78
2023-02-13T15:44:45.380Z,3.85
2023-02-13T15:47:17.154Z,3.93
2023-02-13T15:49:47.276Z,4.00
2023-02-13T15:52:18.117Z,3.93
2023-02-13T15:54:49.046Z,3.93
2023-02-13T15:57:16.513Z,3.87
2023-02-13T15:59:43.880Z,4.20
2023-02-13T16:02:15.101Z,4.87
2023-02-13T16:04:42.469Z,4.12
2023-02-13T16:07:11.422Z,3.62
2023-02-13T16:09:40.818Z,3.36
2023-02-13T16:12:19.191Z,3.30
2023-02-13T16:14:50.772Z,4.41
2023-02-13T16:17:24.026Z,4.32
2023-02-13T16:19:58.389Z,3.52
2023-02-13T16:22:33.092Z,3.21
2023-02-13T16:25:15.538Z,2.89
2023-02-13T16:27:44.897Z,2.74
2023-02-13T16:30:24.756Z,2.66
2023-02-13T16:32:51.312Z,2.67
2023-02-13T16:35:27.168Z,2.59
2023-02-13T16:37:56.427Z,2.54
2023-02-13T16:40:37.975Z,2.66
2023-02-13T16:43:33.887Z,2.67
2023-02-13T16:46:18.865Z,2.77
2023-02-13T16:48:48.213Z,2.80
2023-02-13T16:51:30.469Z,2.73
2023-02-13T16:53:57.816Z,2.77
2023-02-13T16:56:24.467Z,2.72
2023-02-13T16:59:13.608Z,2.70
2023-02-13T17:01:40.181Z,2.67
2023-02-13T17:04:18.833Z,2.72
2023-02-13T17:06:45.383Z,2.70
2023-02-13T17:09:11.949Z,2.73
2023-02-13T17:11:38.652Z,2.62
2023-02-13T17:14:05.815Z,2.56
2023-02-13T17:16:32.274Z,2.61
2023-02-13T17:18:58.705Z,2.78
2023-02-13T17:21:25.278Z,2.77
2023-02-13T17:23:51.783Z,2.92
2023-02-13T17:26:18.326Z,2.85
2023-02-13T17:28:44.840Z,2.83
2023-02-13T17:31:13.443Z,2.85
2023-02-13T17:33:40.460Z,2.85
2023-02-13T17:36:11.203Z,2.85
2023-02-13T17:38:37.774Z,2.88
2023-02-13T17:41:05.959Z,2.79
2023-02-13T17:43:32.384Z,2.73
2023-02-13T17:46:01.116Z,2.78
2023-02-13T17:48:28.726Z,2.81
2023-02-13T17:50:55.771Z,2.90
2023-02-13T17:53:24.570Z,2.73
2023-02-13T17:55:51.386Z,2.59
2023-02-13T17:58:20.965Z,2.54
2023-02-13T18:00:47.852Z,2.55
2023-02-13T18:03:14.609Z,2.64
2023-02-13T18:05:41.797Z,2.62
2023-02-13T18:08:09.483Z,2.58
2023-02-13T18:10:40.035Z,2.58
2023-02-13T18:13:06.602Z,2.58
2023-02-13T18:15:35.516Z,2.61
2023-02-13T18:18:03.090Z,2.47
2023-02-13T18:20:29.867Z,2.42
2023-02-13T18:22:57.131Z,2.14
2023-02-13T18:25:23.668Z,2.29
2023-02-13T18:27:50.367Z,2.39
2023-02-13T18:30:19.529Z,2.25
2023-02-13T18:32:50.052Z,2.17
2023-02-13T18:35:18.149Z,2.17
2023-02-13T18:37:45.006Z,1.97
2023-02-13T18:40:14.270Z,1.90
2023-02-13T18:42:40.761Z,1.97
2023-02-13T18:45:08.030Z,2.07
2023-02-13T18:47:34.538Z,2.12
2023-02-13T18:50:00.959Z,2.22
2023-02-13T18:52:27.533Z,2.37
2023-02-13T18:54:54.003Z,2.36
2023-02-13T18:57:21.552Z,2.24
2023-02-13T18:59:48.128Z,2.00
2023-02-13T19:02:14.641Z,1.94
2023-02-13T19:04:44.428Z,1.78
2023-02-13T19:07:11.412Z,1.98
2023-02-13T19:09:39.633Z,1.98
2023-02-13T19:12:06.573Z,1.94
2023-02-13T19:14:33.962Z,1.82
2023-02-13T19:17:00.522Z,1.94
2023-02-13T19:19:26.963Z,1.87
2023-02-13T19:21:53.393Z,1.89
2023-02-13T19:24:19.867Z,1.88
2023-02-13T19:26:46.543Z,1.80
2023-02-13T19:29:13.103Z,2.00
2023-02-13T19:31:40.639Z,1.99
2023-02-13T19:34:07.207Z,1.98
2023-02-13T19:36:33.681Z,2.01
2023-02-13T19:39:02.650Z,1.94
2023-02-13T19:41:29.710Z,1.87
2023-02-13T19:43:56.600Z,1.84
2023-02-13T19:46:25.169Z,1.72
2023-02-13T19:48:52.517Z,1.70
2023-02-13T19:51:21.408Z,1.63
2023-02-13T19:53:48.478Z,1.57
2023-02-13T19:56:15.042Z,1.60
2023-02-13T19:58:42.588Z,1.52
2023-02-13T20:01:10.243Z,1.40
2023-02-13T20:03:36.963Z,1.43
2023-02-13T20:06:05.702Z,1.38
2023-02-13T20:08:32.757Z,1.40
2023-02-13T20:11:01.315Z,1.33
2023-02-13T20:13:28.463Z,1.21
2023-02-13T20:15:55.197Z,1.29
2023-02-13T20:18:21.706Z,1.05
2023-02-13T20:20:48.391Z,0.96
2023-02-13T20:23:16.897Z,1.05
2023-02-13T20:25:43.425Z,0.93
2023-02-13T20:28:11.682Z,0.90
2023-02-13T20:30:40.105Z,0.76
2023-02-13T20:33:06.733Z,0.82
2023-02-13T20:35:33.184Z,1.02
2023-02-13T20:37:59.714Z,0.93
2023-02-13T20:40:27.077Z,0.95
2023-02-13T20:42:53.539Z,0.83
2023-02-13T20:45:20.130Z,0.88
2023-02-13T20:47:46.839Z,0.79
2023-02-13T20:50:13.566Z,0.83
2023-02-13T20:52:40.306Z,0.81
2023-02-13T20:55:08.048Z,0.93
2023-02-13T20:57:35.913Z,0.92
2023-02-13T21:00:04.284Z,0.65
2023-02-13T21:02:31.244Z,0.62
2023-02-13T21:04:58.124Z,0.70
2023-02-13T21:07:27.228Z,0.75
2023-02-13T21:09:53.749Z,0.76
2023-02-13T21:12:20.350Z,0.66
2023-02-13T21:14:47.438Z,0.67
2023-02-13T21:17:13.845Z,0.79
2023-02-13T21:19:40.354Z,0.77
2023-02-13T21:22:12.838Z,0.68
2023-02-13T21:24:40.856Z,0.83
2023-02-13T21:27:08.310Z,0.78
2023-02-13T21:29:35.324Z,0.73
2023-02-13T21:32:03.372Z,0.44
2023-02-13T21:34:30.018Z,0.31
2023-02-13T21:36:56.435Z,0.39
2023-02-13T21:39:22.864Z,0.37
2023-02-13T21:41:49.376Z,0.10
2023-02-13T21:44:16.397Z,0.47
2023-02-13T21:46:44.221Z,0.50
2023-02-13T21:49:12.783Z,0.54
2023-02-13T21:51:39.250Z,0.63
2023-02-13T21:54:06.125Z,0.59
2023-02-13T21:56:34.374Z,0.41
2023-02-13T21:59:00.894Z,0.14
2023-02-13T22:01:29.028Z,0.38
2023-02-13T22:04:00.310Z,0.28
2023-02-13T22:06:28.685Z,0.39
2023-02-13T22:08:58.059Z,0.56
2023-02-13T22:11:24.684Z,0.66
2023-02-13T22:13:55.127Z,0.61
2023-02-13T22:16:24.236Z,0.33
2023-02-13T22:18:50.742Z,0.38
2023-02-13T22:21:18.949Z,0.51
2023-02-13T22:23:47.038Z,0.64
2023-02-13T22:26:16.051Z,0.44
2023-02-13T22:28:42.746Z,0.40
2023-02-13T22:31:10.109Z,0.43
2023-02-13T22:33:36.591Z,0.41
2023-02-13T22:36:04.061Z,0.31
2023-02-13T22:38:32.129Z,0.51
2023-02-13T22:41:05.379Z,0.55
2023-02-13T22:43:31.786Z,0.43
2023-02-13T22:46:02.426Z,0.40
2023-02-13T22:48:28.908Z,0.32
2023-02-13T22:50:55.307Z,0.48
2023-02-13T22:53:21.715Z,0.58
2023-02-13T22:55:48.382Z,0.50
2023-02-13T22:58:15.391Z,0.33
2023-02-13T23:00:41.739Z,0.36
2023-02-13T23:03:08.168Z,0.36
2023-02-13T23:05:37.979Z,2.81
2023-02-13T23:08:04.439Z,4.52
2023-02-13T23:10:30.882Z,7.41
2023-02-13T23:12:57.022Z,7.32
2023-02-13T23:15:24.150Z,3.63
2023-02-13T23:18:08.568Z,1.95
2023-02-13T23:20:34.975Z,1.19
2023-02-13T23:23:03.170Z,0.90
2023-02-13T23:25:31.158Z,0.68
2023-02-13T23:27:57.551Z,0.47
2023-02-13T23:30:24.949Z,0.31
2023-02-13T23:32:51.470Z,0.24
2023-02-13T23:35:17.887Z,0.23
2023-02-13T23:37:44.276Z,0.25
2023-02-13T23:40:12.719Z,0.24
2023-02-13T23:42:39.467Z,0.29
2023-02-13T23:45:06.490Z,0.06
2023-02-13T23:47:33.578Z,0.02
2023-02-13T23:50:00.006Z,-0.03
2023-02-13T23:52:26.605Z,-0.08
2023-02-13T23:54:52.992Z,0.05
2023-02-13T23:57:19.400Z,0.08
2023-02-13T23:59:45.832Z,0.40
